Saturday, August 18, 2018, 3:49 PM EDT
Back to Local

KORE, Orange, Orange Municipal Airport

Location: Orange, MA, United States Lat: 42.572
Local Time: 3:49 PM EDT (19:49 GMT) Lon: -72.278
Time Zone: US/Eastern Elev: 554 ft

Show me the last for .
Show Decoded

2018-08-18 14:52 METAR KORE 181852Z AUTO 00000KT 10SM CLR 24/20 A2982 RMK AO2 LTG DSNT SE AND S
                 RAB00E26 SLP095 P0000 T02390200 =
2018-08-18 14:01 METAR KORE 181801Z AUTO 00000KT 10SM -RA SCT022 SCT047 BKN100 24/22 A2982 RMK
                 AO2 LTG DSNT SW RAB00 P0000 T02440217 =
2018-08-18 13:52 METAR KORE 181752Z AUTO 00000KT 10SM FEW006 BKN021 24/22 A2982 RMK AO2 LTG DSNT
                 SW RAE18 SLP094 P0003 60005 T02390217 10278 20233 58004 =
2018-08-18 13:27 METAR KORE 181727Z AUTO 00000KT 10SM SCT008 BKN055 BKN070 24/21 A2983 RMK AO2
                 LTG DSNT SW AND W RAE18 P0003 T02390211 =
2018-08-18 12:52 METAR KORE 181652Z AUTO 32004KT 7SM -RA FEW033 BKN060 OVC080 24/21 A2983 RMK AO2
                 RAB27 SLP099 P0002 T02390211 =
2018-08-18 12:16 METAR KORE 181616Z AUTO 35008KT 320V040 10SM FEW019 SCT028 OVC048 24/20 A2983
                 RMK AO2 T02440200 =
2018-08-18 11:52 METAR KORE 181552Z AUTO 34015G22KT 10SM FEW018 BKN027 OVC033 27/21 A2983 RMK AO2
                 SLP096 T02720211 =
2018-08-18 11:17 METAR KORE 181517Z AUTO 22010KT 10SM BKN021 BKN027 27/22 A2983 RMK AO2 T02720217
                 =
2018-08-18 10:52 METAR KORE 181452Z AUTO 22009KT 10SM CLR 26/22 A2983 RMK AO2 SLP097 60000
                 T02610217 56005 =
2018-08-18 09:52 METAR KORE 181352Z AUTO 23004KT 10SM FEW013 26/22 A2983 RMK AO2 RAE1258 SLP097
                 P0000 T02560222 =
2018-08-18 08:52 METAR KORE 181252Z AUTO 19005KT 10SM -RA FEW010 SCT090 BKN110 24/22 A2984 RMK
                 AO2 SLP101 P0000 T02440222 =
2018-08-18 07:52 METAR KORE 181152Z AUTO 17004KT 10SM -RA OVC100 23/22 A2984 RMK AO2 SLP102 P0000
                 60002 70127 T02330217 10233 20228 58000 =
2018-08-18 07:24 METAR KORE 181124Z AUTO 00000KT 10SM -RA FEW009 SCT090 OVC120 23/21 A2985 RMK
                 AO2 P0000 T02330211 =
2018-08-18 06:52 METAR KORE 181052Z AUTO 18004KT 10SM -RA BKN110 23/21 A2985 RMK AO2 RAB08 SLP104
                 P0002 T02280211 =
2018-08-18 05:52 METAR KORE 180952Z AUTO 19007KT 10SM FEW011 FEW120 23/21 A2985 RMK AO2 SLP106
                 T02280211 =
2018-08-18 04:52 METAR KORE 180852Z AUTO 18005KT 10SM CLR 23/21 A2985 RMK AO2 SLP103 60000
                 T02280211 58012 =
2018-08-18 04:26 METAR KORE 180826Z AUTO 19006KT 10SM SCT011 SCT037 23/21 A2985 RMK AO2 T02280211
                 =
2018-08-18 03:52 METAR KORE 180752Z AUTO 19005KT 10SM BKN013 23/21 A2986 RMK AO2 SLP108 T02280211
                 =
2018-08-18 02:52 METAR KORE 180652Z AUTO 19006KT 10SM OVC012 23/21 A2987 RMK AO2 RAE0555 SLP113
                 P0000 T02280211 =
2018-08-18 02:04 METAR KORE 180604Z AUTO 21006KT 10SM BKN014 OVC110 23/22 A2988 RMK AO2 RAE0555
                 P0000 T02280217 =
2018-08-18 01:52 METAR KORE 180552Z AUTO 21005KT 10SM -RA FEW016 OVC110 23/22 A2988 RMK AO2
                 SLP115 P0003 60066 T02330217 10256 20233 56019 =
2018-08-18 00:52 METAR KORE 180452Z AUTO 17004KT 6SM RA BR FEW009 BKN110 23/22 A2990 RMK AO2
                 TSE04 SLP123 P0021 T02330222 403060194 =
2018-08-18 00:49 METAR KORE 180449Z AUTO 16005KT 6SM RA BR SCT009 BKN110 23/22 A2990 RMK AO2
                 TSE04 P0021 =
2018-08-18 00:36 METAR KORE 180436Z AUTO 16004KT 4SM RA BR BKN011 BKN110 24/22 A2992 RMK AO2 LTG
                 DSNT SE TSE04 P0017 T02390222 =
2018-08-18 00:29 METAR KORE 180429Z AUTO 17003KT 2 1/2SM RA BR BKN011 BKN018 OVC100 23/23 A2992
                 RMK AO2 LTG DSNT SE AND S TSE04 P0015 T02330228 =
2018-08-18 00:22 METAR KORE 180422Z AUTO 00000KT 2 1/2SM +RA BR BKN009 BKN013 OVC017 24/23 A2992
                 RMK AO2 LTG DSNT SE AND S TSE04 P0013 T02390228 =
2018-08-18 00:19 METAR KORE 180419Z AUTO 00000KT 3SM RA BR BKN013 OVC017 24/23 A2992 RMK AO2 LTG
                 DSNT SE AND S TSE04 P0012 T02390228 =
2018-08-18 00:04 METAR KORE 180404Z AUTO 15005KT 3SM VCTS RA BR BKN013 BKN029 OVC047 24/22 A2993
                 RMK AO2 LTG DSNT SE AND S TSE04 P0006 T02390222 =
2018-08-17 23:52 METAR KORE 180352Z AUTO 00000KT 4SM TSRA BR SCT015 BKN049 OVC110 24/23 A2994 RMK
                 AO2 LTG DSNT E-SW TSE05B49 SLP135 P0017 T02390228 =
2018-08-17 23:49 METAR KORE 180349Z AUTO 19003KT 4SM TSRA BR FEW015 BKN049 OVC100 24/22 A2994 RMK
                 AO2 LTG DSNT E-SW TSE05B49 P0016 =
2018-08-17 23:19 METAR KORE 180319Z AUTO 16007KT 5SM RA BR FEW080 BKN110 24/23 A2993 RMK AO2 LTG
                 DSNT SE-W TSE05 P0006 T02390228 =
2018-08-17 23:05 METAR KORE 180305Z AUTO 17006KT 5SM VCTS RA BR FEW013 SCT026 BKN110 24/23 A2994
                 RMK AO2 LTG DSNT S-W TSE05 P0002 T02440228 =
2018-08-17 23:00 METAR KORE 180300Z AUTO 15004KT 5SM -TSRA BR FEW011 BKN023 BKN070 24/23 A2994
                 RMK AO2 LTG DSNT S-NW P0001 T02390228 =
2018-08-17 22:52 METAR KORE 180252Z AUTO 16004KT 2SM TSRA BR BKN015 BKN026 OVC100 24/22 A2994 RMK
                 AO2 LTG DSNT S AND NW TSB33 SLP136 P0023 60025 T02440222 56006 =
2018-08-17 22:49 METAR KORE 180249Z AUTO 19003KT 1 1/2SM +TSRA BR SCT013 BKN022 OVC100 24/22
                 A2994 RMK AO2 LTG DSNT S AND SW TSB33 P0023 =
2018-08-17 22:42 METAR KORE 180242Z AUTO 27005KT 2SM +TSRA BR BKN013 BKN021 OVC080 24/23 A2996
                 RMK AO2 LTG DSNT SW TSB33 P0018 T02390228 =
2018-08-17 22:33 METAR KORE 180233Z AUTO 20006KT 5SM -TSRA BR BKN016 BKN045 OVC085 24/23 A2995
                 RMK AO2 LTG DSNT S-W TSB33 P0010 T02440228 =
2018-08-17 22:29 METAR KORE 180229Z AUTO 19007KT 5SM VCTS RA BR SCT018 BKN043 OVC110 24/23 A2994
                 RMK AO2 LTG DSNT S-W P0009 T02440228 =
2018-08-17 21:52 METAR KORE 180152Z AUTO 20004KT 7SM -RA SCT050 SCT075 BKN095 24/23 A2994 RMK AO2
                 LTG DSNT SW RAB02 SLP136 P0002 T02440228 =
2018-08-17 20:52 METAR KORE 180052Z AUTO 18008KT 9SM BKN080 OVC110 26/23 A2996 RMK AO2 LTG DSNT
                 W-NE RAB19E35 SLP142 P0000 T02560228 =
2018-08-17 19:59 METAR KORE 172359Z AUTO 18003KT 8SM SCT021 BKN080 OVC095 26/23 A2995 RMK AO2 LTG
                 DSNT W-NE T02560233 =
2018-08-17 19:52 METAR KORE 172352Z AUTO 17004KT 7SM SCT021 BKN027 OVC095 26/23 A2994 RMK AO2 LTG
                 DSNT W-NE RAB2258E27 TSE18 SLP136 P0007 60059 T02560233 10300 20233 56004 =
2018-08-17 19:37 METAR KORE 172337Z AUTO 16004KT 7SM SCT024 SCT045 OVC095 26/23 A2994 RMK AO2 LTG
                 DSNT W-NE RAB2258E27 TSE18 P0007 T02560233 =
2018-08-17 19:24 METAR KORE 172324Z AUTO 20005KT 8SM VCTS -RA FEW027 BKN080 OVC100 26/23 A2994
                 RMK AO2 LTG DSNT W-NE RAB2258 TSE18 P0007 T02560233 =
2018-08-17 18:52 METAR KORE 172252Z AUTO 16006KT 10SM TS SCT035 OVC090 27/23 A2993 RMK AO2 LTG
                 DSNT N AND NW TSB21E36B49 SLP133 T02720228 =
2018-08-17 18:42 METAR KORE 172242Z AUTO 17004KT 10SM VCTS FEW042 FEW055 OVC090 27/23 A2994 RMK
                 AO2 LTG DSNT SW-N TSB21E36 T02720233 =
2018-08-17 18:27 METAR KORE 172227Z AUTO 17006KT 10SM TS FEW065 OVC090 27/23 A2993 RMK AO2 LTG
                 DSNT SW AND NW TSB21 T02720228 =
2018-08-17 17:52 METAR KORE 172152Z AUTO 21005KT 10SM FEW040 SCT049 SCT055 28/23 A2995 RMK AO2
                 LTG DSNT S SLP140 T02830233 =
2018-08-17 16:52 METAR KORE 172052Z AUTO 18004KT 10SM CLR 27/23 A2998 RMK AO2 SLP149 60052
                 T02720228 58014 =
2018-08-17 15:52 METAR KORE 171952Z AUTO 14004KT 10SM CLR 25/22 A2999 RMK AO2 LTG DSNT NE AND E
                 RAE05B13E27 TSE04 SLP153 P0000 T02500222 =

Support USWX by starting your Amazon purchase here.